createdAt,value
2023-12-19T00:01:58.220Z,100292.44
2023-12-19T00:04:27.074Z,100336.00
2023-12-19T00:06:55.665Z,100341.25
2023-12-19T00:09:24.235Z,100349.91
2023-12-19T00:11:52.604Z,100318.03
2023-12-19T00:14:22.778Z,100366.00
2023-12-19T00:16:51.885Z,100369.53
2023-12-19T00:19:20.651Z,100371.09
2023-12-19T00:21:49.229Z,100356.06
2023-12-19T00:24:17.773Z,100350.06
2023-12-19T00:26:46.148Z,100358.84
2023-12-19T00:29:19.206Z,100355.19
2023-12-19T00:31:52.880Z,100341.28
2023-12-19T00:34:22.352Z,100349.16
2023-12-19T00:36:52.784Z,100334.22
2023-12-19T00:39:21.244Z,100357.06
2023-12-19T00:41:51.739Z,100319.72
2023-12-19T00:44:20.609Z,100345.00
2023-12-19T00:46:51.032Z,100292.81
2023-12-19T00:49:19.536Z,100367.69
2023-12-19T00:51:47.879Z,100362.28
2023-12-19T00:54:16.415Z,100339.66
2023-12-19T00:56:44.856Z,100383.56
2023-12-19T00:59:13.111Z,100395.00
2023-12-19T01:01:41.543Z,100413.72
2023-12-19T01:04:12.435Z,100407.50
2023-12-19T01:06:42.349Z,100325.34
2023-12-19T01:09:11.216Z,100395.59
2023-12-19T01:11:39.789Z,100418.25
2023-12-19T01:14:08.220Z,100419.88
2023-12-19T01:16:36.863Z,100425.97
2023-12-19T01:19:08.248Z,100399.84
2023-12-19T01:21:38.208Z,100447.03
2023-12-19T01:24:07.406Z,100441.22
2023-12-19T01:26:35.819Z,100440.47
2023-12-19T01:29:04.798Z,100466.78
2023-12-19T01:31:35.647Z,100392.69
2023-12-19T01:34:04.072Z,100454.50
2023-12-19T01:36:33.325Z,100463.97
2023-12-19T01:39:03.295Z,100465.78
2023-12-19T01:41:32.320Z,100475.28
2023-12-19T01:44:00.850Z,100454.16
2023-12-19T01:46:29.966Z,100439.41
2023-12-19T01:49:00.895Z,100456.00
2023-12-19T01:51:29.913Z,100425.50
2023-12-19T01:53:59.715Z,100460.28
2023-12-19T01:56:29.856Z,100454.19
2023-12-19T01:58:59.097Z,100478.88
2023-12-19T02:01:27.992Z,100437.94
2023-12-19T02:03:56.780Z,100458.63
2023-12-19T02:06:26.085Z,100461.47
2023-12-19T02:08:54.423Z,100464.84
2023-12-19T02:11:22.950Z,100435.28
2023-12-19T02:13:52.867Z,100445.91
2023-12-19T02:16:21.277Z,100422.53
2023-12-19T02:19:02.488Z,100490.50
2023-12-19T02:21:31.752Z,100473.91
2023-12-19T02:24:01.972Z,100449.22
2023-12-19T02:26:30.684Z,100440.28
2023-12-19T02:28:59.458Z,100406.31
2023-12-19T02:31:28.248Z,100457.94
2023-12-19T02:33:56.918Z,100455.91
2023-12-19T02:36:25.793Z,100453.16
2023-12-19T02:38:54.077Z,100475.03
2023-12-19T02:41:24.049Z,100450.66
2023-12-19T02:43:54.622Z,100472.03
2023-12-19T02:46:24.690Z,100475.34
2023-12-19T02:48:53.436Z,100486.50
2023-12-19T02:51:23.048Z,100469.91
2023-12-19T02:53:52.890Z,100477.72
2023-12-19T02:56:21.411Z,100470.13
2023-12-19T02:58:51.176Z,100497.13
2023-12-19T03:01:22.468Z,100475.47
2023-12-19T03:03:51.043Z,100478.06
2023-12-19T03:06:19.841Z,100470.78
2023-12-19T03:08:49.121Z,100413.09
2023-12-19T03:11:17.635Z,100480.22
2023-12-19T03:13:46.464Z,100461.09
2023-12-19T03:16:16.207Z,100475.06
2023-12-19T03:18:44.600Z,100461.97
2023-12-19T03:21:13.077Z,100470.69
2023-12-19T03:23:41.889Z,100407.88
2023-12-19T03:26:10.301Z,100475.22
2023-12-19T03:28:38.961Z,100480.38
2023-12-19T03:31:07.406Z,100429.88
2023-12-19T03:33:37.374Z,100485.69
2023-12-19T03:36:06.872Z,100462.91
2023-12-19T03:38:36.815Z,100459.34
2023-12-19T03:41:05.525Z,100427.00
2023-12-19T03:43:33.737Z,100468.88
2023-12-19T03:46:03.968Z,100469.94
2023-12-19T03:48:32.593Z,100464.66
2023-12-19T03:51:02.681Z,100496.22
2023-12-19T03:53:31.247Z,100491.53
2023-12-19T03:55:59.806Z,100486.34
2023-12-19T03:58:28.207Z,100489.25
2023-12-19T04:00:56.769Z,100494.41
2023-12-19T04:03:25.094Z,100466.44
2023-12-19T04:05:53.452Z,100420.28
2023-12-19T04:08:23.468Z,100464.72
2023-12-19T04:10:51.703Z,100463.16
2023-12-19T04:13:20.309Z,100479.81
2023-12-19T04:15:49.030Z,100498.03
2023-12-19T04:18:17.690Z,100477.06
2023-12-19T04:20:46.033Z,100499.81
2023-12-19T04:23:14.688Z,100509.81
2023-12-19T04:25:44.766Z,100505.34
2023-12-19T04:28:13.094Z,100493.06
2023-12-19T04:30:41.489Z,100479.16
2023-12-19T04:33:09.996Z,100427.72
2023-12-19T04:35:38.502Z,100473.13
2023-12-19T04:38:06.874Z,100468.78
2023-12-19T04:40:35.217Z,100472.16
2023-12-19T04:43:05.232Z,100458.47
2023-12-19T04:45:33.944Z,100493.47
2023-12-19T04:48:02.371Z,100435.00
2023-12-19T04:50:30.925Z,100496.97
2023-12-19T04:52:59.271Z,100516.19
2023-12-19T04:55:27.569Z,100490.78
2023-12-19T04:57:56.221Z,100496.88
2023-12-19T05:00:26.104Z,100506.50
2023-12-19T05:02:56.749Z,100508.19
2023-12-19T05:05:26.395Z,100455.78
2023-12-19T05:07:54.739Z,100472.41
2023-12-19T05:10:23.247Z,100496.75
2023-12-19T05:12:51.685Z,100498.56
2023-12-19T05:15:20.596Z,100469.88
2023-12-19T05:17:50.682Z,100499.47
2023-12-19T05:20:19.499Z,100495.06
2023-12-19T05:22:47.957Z,100514.31
2023-12-19T05:25:16.237Z,100510.94
2023-12-19T05:27:45.257Z,100505.66
2023-12-19T05:30:14.778Z,100523.34
2023-12-19T05:32:43.533Z,100493.59
2023-12-19T05:35:13.712Z,100499.00
2023-12-19T05:37:41.968Z,100482.38
2023-12-19T05:40:11.565Z,100499.09
2023-12-19T05:42:40.090Z,100513.06
2023-12-19T05:45:09.925Z,100504.25
2023-12-19T05:47:38.995Z,100502.69
2023-12-19T05:50:08.285Z,100502.47
2023-12-19T05:52:38.193Z,100524.28
2023-12-19T05:55:07.165Z,100536.75
2023-12-19T05:57:35.520Z,100521.06
2023-12-19T06:00:06.646Z,100504.59
2023-12-19T06:02:36.746Z,100497.56
2023-12-19T06:05:08.566Z,100459.16
2023-12-19T06:07:39.329Z,100519.44
2023-12-19T06:10:11.693Z,100515.03
2023-12-19T06:12:40.653Z,100523.72
2023-12-19T06:15:12.882Z,100533.41
2023-12-19T06:17:43.828Z,100460.81
2023-12-19T06:20:12.835Z,100523.88
2023-12-19T06:22:44.428Z,100506.34
2023-12-19T06:25:13.272Z,100525.44
2023-12-19T06:27:43.837Z,100535.84
2023-12-19T06:30:22.725Z,100529.75
2023-12-19T06:32:57.002Z,100497.66
2023-12-19T06:35:25.946Z,100537.81
2023-12-19T06:37:56.123Z,100532.59
2023-12-19T06:40:25.057Z,100501.13
2023-12-19T06:43:09.686Z,100457.44
2023-12-19T06:45:38.420Z,100525.59
2023-12-19T06:48:08.097Z,100527.38
2023-12-19T06:50:43.457Z,100504.66
2023-12-19T06:53:36.791Z,100530.88
2023-12-19T06:56:11.660Z,100472.25
2023-12-19T06:58:40.105Z,100488.03
2023-12-19T07:01:09.593Z,100492.38
2023-12-19T07:03:38.073Z,100531.63
2023-12-19T07:06:07.328Z,100526.31
2023-12-19T07:08:46.141Z,100544.78
2023-12-19T07:11:19.023Z,100542.13
2023-12-19T07:13:50.055Z,100541.47
2023-12-19T07:16:21.230Z,100527.41
2023-12-19T07:18:50.407Z,100529.16
2023-12-19T07:21:25.915Z,100520.28
2023-12-19T07:23:56.441Z,100514.28
2023-12-19T07:26:26.277Z,100518.69
2023-12-19T07:28:55.045Z,100546.66
2023-12-19T07:31:29.033Z,100508.28
2023-12-19T07:33:59.651Z,100499.47
2023-12-19T07:36:29.162Z,100512.44
2023-12-19T07:38:59.519Z,100533.47
2023-12-19T07:41:28.927Z,100531.69
2023-12-19T07:43:58.305Z,100524.66
2023-12-19T07:46:27.002Z,100495.94
2023-12-19T07:48:56.797Z,100532.81
2023-12-19T07:51:25.659Z,100559.03
2023-12-19T07:53:55.909Z,100482.22
2023-12-19T07:56:26.034Z,100544.13
2023-12-19T07:58:56.061Z,100544.88
2023-12-19T08:01:24.693Z,100499.44
2023-12-19T08:03:53.170Z,100553.63
2023-12-19T08:06:22.356Z,100555.28
2023-12-19T08:08:52.801Z,100555.53
2023-12-19T08:11:21.319Z,100553.78
2023-12-19T08:13:52.225Z,100541.41
2023-12-19T08:16:22.390Z,100508.22
2023-12-19T08:18:52.761Z,100558.88
2023-12-19T08:21:21.449Z,100565.00
2023-12-19T08:23:50.224Z,100564.06
2023-12-19T08:26:18.821Z,100581.59
2023-12-19T08:28:47.833Z,100579.97
2023-12-19T08:31:18.260Z,100538.91
2023-12-19T08:33:50.287Z,100547.59
2023-12-19T08:36:33.387Z,100562.50
2023-12-19T08:39:05.749Z,100483.84
2023-12-19T08:41:34.865Z,100524.03
2023-12-19T08:44:03.247Z,100562.44
2023-12-19T08:46:34.288Z,100562.34
2023-12-19T08:49:03.834Z,100550.16
2023-12-19T08:51:32.840Z,100560.78
2023-12-19T08:54:02.056Z,100549.41
2023-12-19T08:56:30.874Z,100557.22
2023-12-19T08:58:59.165Z,100536.19
2023-12-19T09:01:28.096Z,100562.34
2023-12-19T09:03:58.258Z,100586.94
2023-12-19T09:06:26.780Z,100569.41
2023-12-19T09:08:55.466Z,100551.84
2023-12-19T09:11:24.793Z,100545.03
2023-12-19T09:13:53.097Z,100559.81
2023-12-19T09:16:21.415Z,100490.75
2023-12-19T09:18:50.450Z,100568.47
2023-12-19T09:21:20.413Z,100564.13
2023-12-19T09:23:49.253Z,100501.31
2023-12-19T09:26:17.624Z,100526.00
2023-12-19T09:28:47.162Z,100554.72
2023-12-19T09:31:17.688Z,100553.81
2023-12-19T09:33:46.324Z,100560.78
2023-12-19T09:36:26.142Z,100515.31
2023-12-19T09:38:55.777Z,100551.16
2023-12-19T09:41:24.235Z,100545.91
2023-12-19T09:43:52.518Z,100545.81
2023-12-19T09:46:21.284Z,100537.94
2023-12-19T09:48:51.684Z,100553.69
2023-12-19T09:51:28.794Z,100516.22
2023-12-19T09:53:57.726Z,100473.25
2023-12-19T09:56:27.271Z,100527.38
2023-12-19T09:58:56.999Z,100559.00
2023-12-19T10:01:28.454Z,100535.31
2023-12-19T10:03:58.072Z,100486.47
2023-12-19T10:06:31.136Z,100524.00
2023-12-19T10:09:04.530Z,100513.50
2023-12-19T10:11:32.923Z,100531.75
2023-12-19T10:14:12.488Z,100506.44
2023-12-19T10:16:42.898Z,100541.31
2023-12-19T10:19:15.072Z,100536.16
2023-12-19T10:21:44.897Z,100504.66
2023-12-19T10:24:15.523Z,100504.59
2023-12-19T10:26:43.936Z,100525.53
2023-12-19T10:29:13.635Z,100492.38
2023-12-19T10:31:42.326Z,100475.78
2023-12-19T10:34:20.204Z,100497.84
2023-12-19T10:36:50.709Z,100499.34
2023-12-19T10:39:21.252Z,100451.28
2023-12-19T10:41:49.988Z,100467.00
2023-12-19T10:44:20.473Z,100504.69
2023-12-19T10:46:50.467Z,100499.34
2023-12-19T10:49:19.128Z,100495.72
2023-12-19T10:51:58.074Z,100466.03
2023-12-19T10:54:28.316Z,100474.00
2023-12-19T10:57:07.009Z,100460.75
2023-12-19T10:59:48.114Z,100436.22
2023-12-19T11:02:30.172Z,100458.03
2023-12-19T11:05:07.312Z,100430.06
2023-12-19T11:07:39.920Z,100455.38
2023-12-19T11:10:12.918Z,100447.53
2023-12-19T11:12:42.922Z,100458.84
2023-12-19T11:15:12.409Z,100436.94
2023-12-19T11:17:48.490Z,100462.53
2023-12-19T11:20:25.016Z,100450.19
2023-12-19T11:23:06.112Z,100451.09
2023-12-19T11:25:40.892Z,100394.28
2023-12-19T11:28:10.540Z,100444.22
2023-12-19T11:30:41.816Z,100388.25
2023-12-19T11:33:13.434Z,100452.72
2023-12-19T11:35:42.562Z,100437.88
2023-12-19T11:38:30.643Z,100444.91
2023-12-19T11:40:59.893Z,100424.91
2023-12-19T11:43:55.880Z,100444.88
2023-12-19T11:46:26.944Z,100444.97
2023-12-19T11:48:57.197Z,100418.84
2023-12-19T11:51:51.666Z,100438.09
2023-12-19T11:54:23.256Z,100431.03
2023-12-19T11:57:02.934Z,100431.03
2023-12-19T11:59:53.229Z,100391.69
2023-12-19T12:02:31.746Z,100411.84
2023-12-19T12:05:11.624Z,100422.31
2023-12-19T12:07:45.057Z,100410.09
2023-12-19T12:10:17.910Z,100432.84
2023-12-19T12:12:47.007Z,100424.13
2023-12-19T12:15:19.002Z,100328.22
2023-12-19T12:17:48.073Z,100415.34
2023-12-19T12:20:17.773Z,100396.22
2023-12-19T12:22:46.818Z,100373.41
2023-12-19T12:25:19.586Z,100404.78
2023-12-19T12:27:48.302Z,100413.63
2023-12-19T12:30:17.237Z,100403.09
2023-12-19T12:32:47.695Z,100409.31
2023-12-19T12:35:29.370Z,100403.25
2023-12-19T12:37:59.792Z,100398.03
2023-12-19T12:40:29.908Z,100322.97
2023-12-19T12:43:51.308Z,100332.47
2023-12-19T12:46:23.092Z,100352.50
2023-12-19T12:49:02.208Z,100376.75
2023-12-19T12:51:32.220Z,100301.97
2023-12-19T12:54:04.661Z,100314.84
2023-12-19T12:56:38.202Z,100319.22
2023-12-19T12:59:11.099Z,100347.94
2023-12-19T13:01:41.282Z,100356.63
2023-12-19T13:04:10.331Z,100355.78
2023-12-19T13:06:49.890Z,100265.94
2023-12-19T13:09:39.246Z,100237.19
2023-12-19T13:12:10.581Z,100354.09
2023-12-19T13:14:40.458Z,100273.09
2023-12-19T13:17:17.684Z,100294.91
2023-12-19T13:19:46.261Z,100334.00
2023-12-19T13:22:14.869Z,100348.03
2023-12-19T13:24:46.012Z,100334.09
2023-12-19T13:27:17.517Z,100340.03
2023-12-19T13:29:46.081Z,100335.78
2023-12-19T13:32:14.938Z,100280.81
2023-12-19T13:34:43.837Z,100338.22
2023-12-19T13:37:12.735Z,100333.91
2023-12-19T13:39:43.304Z,100327.69
2023-12-19T13:42:11.710Z,100310.25
2023-12-19T13:44:42.405Z,100303.41
2023-12-19T13:47:11.580Z,100281.63
2023-12-19T13:49:40.414Z,100317.41
2023-12-19T13:52:09.474Z,100254.59
2023-12-19T13:54:40.770Z,100273.81
2023-12-19T13:57:10.020Z,100312.16
2023-12-19T13:59:39.283Z,100315.63
2023-12-19T14:02:12.139Z,100317.38
2023-12-19T14:04:43.023Z,100258.06
2023-12-19T14:07:15.476Z,100249.28
2023-12-19T14:09:44.223Z,100249.34
2023-12-19T14:12:27.375Z,100266.63
2023-12-19T14:14:57.701Z,100312.06
2023-12-19T14:17:31.398Z,100299.88
2023-12-19T14:20:01.615Z,100258.16
2023-12-19T14:22:30.985Z,100257.28
2023-12-19T14:25:01.011Z,100282.56
2023-12-19T14:27:30.302Z,100265.00
2023-12-19T14:33:14.861Z,100217.94
2023-12-19T14:35:46.999Z,100204.00
2023-12-19T14:38:17.973Z,100254.53
2023-12-19T14:40:54.225Z,100219.75
2023-12-19T14:43:45.450Z,100258.06
2023-12-19T14:46:36.785Z,100296.50
2023-12-19T16:53:23.922Z,100130.16
2023-12-19T16:55:52.388Z,100183.38
2023-12-19T16:58:33.422Z,100162.44
2023-12-19T17:01:11.774Z,100129.38
2023-12-19T17:03:51.337Z,100132.91
2023-12-19T17:06:33.324Z,100118.97
2023-12-19T17:09:04.953Z,100188.66
2023-12-19T17:11:33.505Z,100123.31
2023-12-19T17:14:02.722Z,100155.50
2023-12-19T17:16:34.476Z,100132.81
2023-12-19T17:19:04.049Z,100152.00
2023-12-19T17:21:33.105Z,100091.00
2023-12-19T17:24:04.463Z,100167.47
2023-12-19T17:26:35.711Z,100099.66
2023-12-19T17:29:04.462Z,100170.97
2023-12-19T17:31:34.927Z,100166.59
2023-12-19T17:34:05.504Z,100155.19
2023-12-19T17:36:35.401Z,100150.00
2023-12-19T17:39:06.300Z,100160.50
2023-12-19T17:41:38.361Z,100122.94
2023-12-19T17:44:08.451Z,100115.09
2023-12-19T17:46:37.870Z,100082.06
2023-12-19T17:49:06.543Z,100129.06
2023-12-19T17:51:35.310Z,100108.22
2023-12-19T17:54:09.162Z,100156.88
2023-12-19T17:56:37.770Z,100148.13
2023-12-19T17:59:12.465Z,100139.66
2023-12-19T18:01:44.835Z,100143.00
2023-12-19T18:04:13.811Z,100068.19
2023-12-19T18:06:42.493Z,100104.75
2023-12-19T18:09:12.670Z,100140.44
2023-12-19T18:11:41.992Z,100056.72
2023-12-19T18:14:10.557Z,100135.91
2023-12-19T18:16:40.303Z,100017.50
2023-12-19T18:19:08.872Z,100070.50
2023-12-19T18:21:37.660Z,100077.47
2023-12-19T18:24:08.569Z,100080.94
2023-12-19T18:26:41.010Z,100067.75
2023-12-19T18:29:12.854Z,100128.75
2023-12-19T18:31:43.490Z,100097.50
2023-12-19T18:34:12.342Z,100120.09
2023-12-19T18:36:41.532Z,100107.06
2023-12-19T18:39:11.648Z,100109.56
2023-12-19T18:41:41.744Z,100067.03
2023-12-19T18:44:10.240Z,100107.97
2023-12-19T18:46:42.385Z,100118.44
2023-12-19T18:49:12.639Z,100104.50
2023-12-19T18:51:41.917Z,100045.34
2023-12-19T18:54:10.708Z,100071.34
2023-12-19T18:56:43.956Z,100058.41
2023-12-19T18:59:13.361Z,100109.72
2023-12-19T19:01:42.143Z,100078.41
2023-12-19T19:04:11.597Z,100087.06
2023-12-19T19:06:43.699Z,100013.88
2023-12-19T19:09:13.224Z,100071.28
2023-12-19T19:11:46.549Z,100079.25
2023-12-19T19:14:15.496Z,100066.13
2023-12-19T19:16:44.350Z,100071.25
2023-12-19T19:19:13.615Z,100074.91
2023-12-19T19:21:47.916Z,100069.56
2023-12-19T19:24:17.126Z,100064.34
2023-12-19T19:26:54.602Z,100086.97
2023-12-19T19:29:26.972Z,100058.25
2023-12-19T19:31:57.239Z,100081.03
2023-12-19T19:34:27.242Z,100081.94
2023-12-19T19:36:56.784Z,100011.41
2023-12-19T19:39:29.124Z,100017.44
2023-12-19T19:42:00.979Z,100053.22
2023-12-19T19:44:30.836Z,100059.34
2023-12-19T19:47:00.223Z,100061.19
2023-12-19T19:49:31.543Z,100080.19
2023-12-19T19:52:00.398Z,100085.50
2023-12-19T19:54:29.118Z,100089.91
2023-12-19T19:56:59.726Z,100047.13
2023-12-19T19:59:28.281Z,100071.50
2023-12-19T20:01:58.769Z,100027.88
2023-12-19T20:04:30.462Z,100039.97
2023-12-19T20:06:59.740Z,100071.31
2023-12-19T20:09:29.222Z,100074.84
2023-12-19T20:12:02.947Z,100081.88
2023-12-19T20:14:32.187Z,100069.69
2023-12-19T20:17:06.570Z,100075.78
2023-12-19T20:19:36.580Z,100074.91
2023-12-19T20:22:06.239Z,100073.06
2023-12-19T20:24:35.472Z,100055.72
2023-12-19T20:27:08.361Z,99987.88
2023-12-19T20:29:40.733Z,100074.91
2023-12-19T20:32:09.558Z,100061.06
2023-12-19T20:34:38.771Z,100073.28
2023-12-19T20:37:07.376Z,100068.94
2023-12-19T20:39:36.160Z,100071.50
2023-12-19T20:42:07.669Z,100068.81
2023-12-19T20:44:37.485Z,100069.69
2023-12-19T20:47:12.123Z,100027.13
2023-12-19T20:49:41.888Z,100015.78
2023-12-19T20:52:10.900Z,100077.69
2023-12-19T20:54:39.472Z,100047.16
2023-12-19T20:57:10.924Z,100041.06
2023-12-19T21:00:45.013Z,100057.59
2023-12-19T21:03:16.352Z,100012.41
2023-12-19T21:05:50.754Z,100043.69
2023-12-19T21:08:19.589Z,99900.97
2023-12-19T21:10:49.901Z,100003.66
2023-12-19T21:13:23.986Z,100033.13
2023-12-19T21:15:55.301Z,99930.53
2023-12-19T21:18:30.726Z,100021.03
2023-12-19T21:21:06.138Z,100026.13
2023-12-19T21:23:57.016Z,99999.25
2023-12-19T21:26:36.337Z,99988.81
2023-12-19T21:29:20.741Z,100033.06
2023-12-19T21:32:03.768Z,100045.25
2023-12-19T21:35:02.822Z,99997.34
2023-12-19T21:40:46.583Z,99991.22
2023-12-19T21:43:28.358Z,100018.19
2023-12-19T21:45:59.115Z,100005.06
2023-12-19T21:48:29.539Z,100003.25
2023-12-19T21:50:59.389Z,99911.09
2023-12-19T21:53:28.558Z,99919.72
2023-12-19T21:55:58.502Z,99966.03
2023-12-19T21:58:27.532Z,99936.34
2023-12-19T22:00:58.681Z,99938.97
2023-12-19T22:03:27.142Z,99986.69
2023-12-19T22:05:55.630Z,99984.94
2023-12-19T22:08:25.065Z,99990.94
2023-12-19T22:10:53.997Z,99987.53
2023-12-19T22:13:23.083Z,99982.31
2023-12-19T22:15:52.034Z,99984.06
2023-12-19T22:18:23.471Z,99984.09
2023-12-19T22:20:53.609Z,99971.91
2023-12-19T22:23:22.697Z,99970.19
2023-12-19T22:25:51.304Z,99944.16
2023-12-19T22:28:20.698Z,99942.28
2023-12-19T22:30:50.092Z,99950.81
2023-12-19T22:33:19.290Z,99935.22
2023-12-19T22:35:49.769Z,99955.97
2023-12-19T22:38:19.093Z,99958.66
2023-12-19T22:40:48.085Z,99909.03
2023-12-19T22:43:16.976Z,99919.38
2023-12-19T22:45:46.694Z,99941.69
2023-12-19T22:48:15.569Z,99889.72
2023-12-19T22:50:44.317Z,99917.53
2023-12-19T22:53:14.569Z,99903.59
2023-12-19T22:55:46.238Z,99919.41
2023-12-19T22:58:16.275Z,99891.50
2023-12-19T23:00:45.763Z,99893.31
2023-12-19T23:03:18.630Z,99894.25
2023-12-19T23:05:47.709Z,99853.38
2023-12-19T23:08:19.044Z,99846.41
2023-12-19T23:10:47.739Z,99862.88
2023-12-19T23:13:16.547Z,99857.72
2023-12-19T23:15:47.647Z,99868.94
2023-12-19T23:18:16.731Z,99875.88
2023-12-19T23:20:45.851Z,99872.34
2023-12-19T23:23:15.219Z,99871.38
2023-12-19T23:25:46.327Z,99825.44
2023-12-19T23:28:14.825Z,99849.72
2023-12-19T23:30:43.735Z,99860.75
2023-12-19T23:33:12.222Z,99808.66
2023-12-19T23:35:40.753Z,99787.78
2023-12-19T23:38:09.192Z,99825.97
2023-12-19T23:40:38.203Z,99821.69
2023-12-19T23:43:08.773Z,99776.41
2023-12-19T23:45:37.348Z,99832.03
2023-12-19T23:48:08.361Z,99818.00
2023-12-19T23:50:37.186Z,99794.59
2023-12-19T23:53:05.958Z,99793.69
2023-12-19T23:55:35.024Z,99809.22
2023-12-19T23:58:05.657Z,99806.44
